Shanghai, Shanghai

05:17 CST le 03 septembre 2014 (GMT +0800)
Concordia | Change Station
CLOSE
Current Station
Stations météorologiques personnelles
Location: Pudong, SHANGHAI
Altitude: 30 ft
Stations météo à proximité

Alt. 30 ft 31.24 °N, 121.59 °E | Updated 10 minutes ago

Pluie
Pluie
75.8 ° F
Paraît 76 ° F
N
2.0
Vent Variable Vent de SO
Gusts 8.0 mph

Aujourd'hui
Haut(e) -- | Bas -- ° F
--% Risque de précip.
Hier
Haut(e) -- | Bas -- ° F
Precip. -- pouce
5:30 AM 6:15 PM
Premier quartier, 55% visible
Pression 29.71 pouce
Visibilité 6.2 Miles terrestres
Nuages Peu 1300 ft
Couvert 3300 ft
indice de chaleur 76 ° F
Point de rosée 73 ° F
Humidité 90%
Précipitations 0.04 pouce
Profondeur de la couche neigeuse Non disponible.
UV 0.0 sur 12
Pollen Non disponible.
Qualité de l'air Non disponible.
Flu Activity Non disponible.
METAR ZSSS 022100Z 30003MPS 270V330 9999 FEW013 OVC033 24/23 Q1006 NOSIG

More Conditions Fewer Conditions

Pression 29.71 pouce
Visibilité 6.2 Miles terrestres
Nuages Peu 1300 ft
Couvert 3300 ft
indice de chaleur 76 ° F
Point de rosée 73 ° F
Humidité 90%
Précipitations 0.04 pouce
Profondeur de la couche neigeuse Non disponible.
UV 0.0 sur 12
Pollen Non disponible.
Qualité de l'air Non disponible.
Flu Activity Non disponible.
METAR ZSSS 022100Z 30003MPS 270V330 9999 FEW013 OVC033 24/23 Q1006 NOSIG

More Conditions Fewer Conditions

10-Day Weather Forecast

Almanac

Astronomie

Sep. 03, 2014 Lever Coucher
Temps réel 05:30 CST 18:15 CST
Crépuscule civil 05:06 CST 18:40 CST
Crépuscule nautique 04:37 CST 19:09 CST
Crépuscule astronomique 04:07 CST 19:39 CST
Lune 13:12 CST (9/3) Pas de coucher de lune
Durée de lumière visible 13h 34m
Longueur du jour
12h 45m
Tomorrow will be 1m 51s shorter.
Premier quartier, 55% of the Moon is Illuminated
Sep 2
Premier quartier
Sep 8
Pleine lune
Sep 15
Dernier quartier
Sep 24
Nouveau
Oct 1
Premier quartier

Les extrêmes de température d’hier

Country Highs Country Lows

Community

WunderPhotos

Upload Photos

1,749,769 Photos téléchargées !

Nearby

Qualité de l'air

Not available.

Épaisseur de neige

Not available.

Activité sismique

Ville Distance Mag. Time & Date
No recent earthquake activity has been reported nearby.
Minimum magnitude displayed is 2.5.

Températures des eaux côtières

Lieu Température
Aucun rapport de station

Stations météo à proximité